Kealia, HI (96751)

2:02 PM HST on May 22, 2015 (GMT -1000)
WAILUA HOMESTEADS | | Change Station
CLOSE
Current Station
Personal Weather Station
Location: Kapaa, HI
Elevation: 361 ft
Nearby Weather Stations

Elev 361 ft 22.07 °N, 159.36 °W | Updated 10 seconds ago

Rain
Rain
72.4 °F
Feels Like 72.4 °F
N
2.0
Wind Variable Wind from WNW
Gusts 9.0 mph

Today
High -- | Low -- °F
--% Chance of Precip.
Yesterday
High -- | Low -- °F
Precip. -- in
5:55 AM 7:12 PM
Waxing Crescent, 25% visible
Pressure 29.99 in
Visibility 10.0 miles
Clouds Overcast 4300 ft
Dew Point 69 °F
Humidity 90%
Rainfall 0.05 in
Snow Depth Not available.
UV 2.3 out of 12
Pollen Not available.
Air Quality Not available.
Flu Activity Local Activity
METAR PHLI 222353Z 01009KT 10SM OVC043 22/19 A2999 RMK AO2 RAE17 SLP154 P0001 60002 T02220194 10283 20222 58001

More Conditions Fewer Conditions

Pressure 29.99 in
Visibility 10.0 miles
Clouds Overcast 4300 ft
Dew Point 69 °F
Humidity 90%
Rainfall 0.05 in
Snow Depth Not available.
UV 2.3 out of 12
Pollen Not available.
Air Quality Not available.
Flu Activity Local Activity
METAR PHLI 222353Z 01009KT 10SM OVC043 22/19 A2999 RMK AO2 RAE17 SLP154 P0001 60002 T02220194 10283 20222 58001

More Conditions Fewer Conditions

10-Day Weather Forecast

Almanac

Astronomy

May. 22, 2015 Rise Set
Actual Time
Civil Twilight
Nautical Twilight
Astronomical Twilight
Moon
Length of Visible Light
Length of Day
Tomorrow will be .
, % of the Moon is Illuminated

Today's Extremes

State Highs State Lows

Community

WunderPhotos

Upload Photos

1,823,339 photos uploaded!

WunderBlogs® & News

Nearby

Air Quality

  Air Quality AQ Index Pollutant
Not available.

Snow Depth

Station Depth Elevation

Earthquake Activity

City Distance Mag. Time & Date
Minimum magnitude displayed is 2.5.

Coastal Water Temperatures

Place Temperature

Stations

Nearby Weather Stations

Station Location Temp. Windchill Dew Point Humidity Wind Precip. Elev Updated Type